createdAt,value
2019-04-23T00:00:14.032Z,36.26
2019-04-23T00:02:56.311Z,36.42
2019-04-23T00:05:35.315Z,36.50
2019-04-23T00:08:04.582Z,36.64
2019-04-23T00:10:25.269Z,36.64
2019-04-23T00:13:05.742Z,36.86
2019-04-23T00:15:21.521Z,36.99
2019-04-23T00:17:55.885Z,37.05
2019-04-23T00:20:25.717Z,37.19
2019-04-23T00:23:10.952Z,37.30
2019-04-23T00:25:56.153Z,37.27
2019-04-23T00:35:52.866Z,37.78
2019-04-23T00:40:51.432Z,37.90
2019-04-23T00:43:22.935Z,38.05
2019-04-23T00:45:54.980Z,38.17
2019-04-23T00:51:06.236Z,38.43
2019-04-23T00:53:25.173Z,38.36
2019-04-23T00:56:03.864Z,38.33
2019-04-23T00:58:31.247Z,38.42
2019-04-23T01:00:57.922Z,38.56
2019-04-23T01:03:21.483Z,38.73
2019-04-23T01:05:52.245Z,38.91
2019-04-23T01:08:26.330Z,39.00
2019-04-23T01:13:31.756Z,39.04
2019-04-23T01:16:08.985Z,39.25
2019-04-23T01:18:46.869Z,39.58
2019-04-23T01:20:54.181Z,39.18
2019-04-23T01:23:54.452Z,39.30
2019-04-23T01:26:39.074Z,39.45
2019-04-23T01:29:12.839Z,39.69
2019-04-23T01:31:49.301Z,39.72
2019-04-23T01:34:21.742Z,39.73
2019-04-23T01:36:46.458Z,39.85
2019-04-23T01:39:17.549Z,40.00
2019-04-23T01:41:49.216Z,40.13
2019-04-23T01:44:21.774Z,40.27
2019-04-23T01:46:49.293Z,40.50
2019-04-23T01:49:27.095Z,40.41
2019-04-23T01:54:19.252Z,40.59
2019-04-23T01:56:47.203Z,40.67
2019-04-23T01:59:18.319Z,40.75
2019-04-23T02:01:50.312Z,40.76
2019-04-23T02:04:22.867Z,40.87
2019-04-23T02:06:53.825Z,40.92
2019-04-23T02:09:16.910Z,40.97
2019-04-23T02:11:53.595Z,40.98
2019-04-23T02:14:21.230Z,41.13
2019-04-23T02:16:50.382Z,41.09
2019-04-23T02:19:23.551Z,41.26
2019-04-23T02:22:01.489Z,41.29
2019-04-23T02:24:34.099Z,41.39
2019-04-23T02:26:58.941Z,41.63
2019-04-23T02:29:44.718Z,41.64
2019-04-23T02:34:51.571Z,41.88
2019-04-23T02:37:15.288Z,41.87
2019-04-23T02:39:57.371Z,41.91
2019-04-23T02:47:34.783Z,42.24
2019-04-23T02:57:05.648Z,42.41
2019-04-23T03:07:27.330Z,42.73
2019-04-23T03:12:24.985Z,42.75
2019-04-23T03:17:26.356Z,42.90
2019-04-23T03:20:08.015Z,43.07
2019-04-23T03:22:55.951Z,43.06
2019-04-23T03:27:50.971Z,43.29
2019-04-23T03:30:53.104Z,43.39
2019-04-23T03:36:13.645Z,43.75
2019-04-23T03:38:13.334Z,43.77
2019-04-23T03:40:21.274Z,43.67
2019-04-23T03:43:06.439Z,43.49
2019-04-23T03:45:43.603Z,43.51
2019-04-23T03:50:37.096Z,43.71
2019-04-23T03:52:58.128Z,43.80
2019-04-23T03:58:05.018Z,44.01
2019-04-23T04:05:36.056Z,44.28
2019-04-23T04:08:13.723Z,44.37
2019-04-23T04:10:35.982Z,44.33
2019-04-23T04:13:22.808Z,44.26
2019-04-23T04:24:17.298Z,44.61
2019-04-23T04:30:33.744Z,44.46
2019-04-23T04:35:57.898Z,44.78
2019-04-23T04:38:36.419Z,44.84
2019-04-23T04:41:05.816Z,44.81
2019-04-23T04:43:33.303Z,44.85
2019-04-23T04:48:23.043Z,44.73
2019-04-23T04:51:00.292Z,44.65
2019-04-23T04:56:07.277Z,44.70
2019-04-23T05:03:28.517Z,44.89
2019-04-23T05:08:29.144Z,44.90
2019-04-23T05:11:05.376Z,44.85
2019-04-23T05:15:58.163Z,44.91
2019-04-23T05:19:08.597Z,44.93
2019-04-23T05:21:21.007Z,44.91
2019-04-23T05:31:18.702Z,44.86
2019-04-23T05:33:52.161Z,45.09
2019-04-23T05:41:21.965Z,44.71
2019-04-23T05:43:57.461Z,44.80
2019-04-23T05:46:27.744Z,44.83
2019-04-23T05:48:52.330Z,44.75
2019-04-23T05:51:27.981Z,44.66
2019-04-23T05:53:51.424Z,44.74
2019-04-23T05:56:21.377Z,44.68
2019-04-23T05:58:58.117Z,44.73
2019-04-23T06:01:51.150Z,44.71
2019-04-23T06:04:12.238Z,44.71
2019-04-23T06:09:10.897Z,44.72
2019-04-23T06:11:49.090Z,44.65
2019-04-23T06:14:19.158Z,44.63
2019-04-23T06:16:47.254Z,44.65
2019-04-23T06:19:07.942Z,44.57
2019-04-23T06:21:47.905Z,44.54
2019-04-23T06:24:15.045Z,44.52
2019-04-23T06:26:42.954Z,44.49
2019-04-23T06:29:19.155Z,44.49
2019-04-23T06:31:38.108Z,44.46
2019-04-23T06:34:14.074Z,44.42
2019-04-23T06:36:37.085Z,44.43
2019-04-23T06:39:01.333Z,44.42
2019-04-23T06:41:36.218Z,44.39
2019-04-23T06:49:23.689Z,44.28
2019-04-23T06:52:02.425Z,44.24
2019-04-23T06:54:25.614Z,44.18
2019-04-23T06:57:03.857Z,44.13
2019-04-23T06:59:27.352Z,44.13
2019-04-23T07:01:59.672Z,44.11
2019-04-23T07:04:33.156Z,44.07
2019-04-23T07:07:13.679Z,44.05
2019-04-23T07:09:13.112Z,44.08
2019-04-23T07:11:49.804Z,43.95
2019-04-23T07:14:21.882Z,43.97
2019-04-23T07:16:52.720Z,43.96
2019-04-23T07:19:33.886Z,43.88
2019-04-23T07:22:01.288Z,43.83
2019-04-23T07:24:21.757Z,43.80
2019-04-23T07:26:45.013Z,43.75
2019-04-23T07:29:25.426Z,43.75
2019-04-23T07:34:25.270Z,43.61
2019-04-23T07:36:55.774Z,43.62
2019-04-23T07:42:41.856Z,43.47
2019-04-23T07:45:16.075Z,43.41
2019-04-23T07:48:11.279Z,43.22
2019-04-23T07:50:51.123Z,43.21
2019-04-23T07:53:13.264Z,43.06
2019-04-23T07:55:41.097Z,43.08
2019-04-23T07:58:14.270Z,42.98
2019-04-23T08:00:41.760Z,42.95
2019-04-23T08:08:09.913Z,42.78
2019-04-23T08:10:46.720Z,42.77
2019-04-23T08:15:42.088Z,42.65
2019-04-23T08:18:13.648Z,42.61
2019-04-23T08:20:46.985Z,42.50
2019-04-23T08:23:28.324Z,42.41
2019-04-23T08:26:23.918Z,42.45
2019-04-23T08:28:48.860Z,42.53
2019-04-23T08:31:07.800Z,42.27
2019-04-23T08:33:42.209Z,42.08
2019-04-23T08:36:11.743Z,42.05
2019-04-23T08:41:22.895Z,41.93
2019-04-23T08:43:40.460Z,41.95
2019-04-23T08:46:26.876Z,41.78
2019-04-23T08:48:55.828Z,41.75
2019-04-23T08:51:31.506Z,41.62
2019-04-23T08:53:51.279Z,41.53
2019-04-23T08:56:27.815Z,41.60
2019-04-23T08:58:47.439Z,41.49
2019-04-23T09:01:18.546Z,41.49
2019-04-23T09:03:47.882Z,41.39
2019-04-23T09:06:22.246Z,41.28
2019-04-23T09:08:49.739Z,41.12
2019-04-23T09:11:37.038Z,41.18
2019-04-23T09:13:59.658Z,40.89
2019-04-23T09:16:22.288Z,40.59
2019-04-23T09:18:56.286Z,40.92
2019-04-23T09:21:25.729Z,40.86
2019-04-23T09:23:54.059Z,40.75
2019-04-23T09:26:22.149Z,40.79
2019-04-23T09:34:31.300Z,40.54
2019-04-23T09:37:06.120Z,40.47
2019-04-23T09:39:43.282Z,40.36
2019-04-23T09:42:27.706Z,40.19
2019-04-23T09:45:15.821Z,40.00
2019-04-23T09:47:58.813Z,39.99
2019-04-23T09:50:23.731Z,39.72
2019-04-23T09:53:06.689Z,39.66
2019-04-23T09:55:30.003Z,39.55
2019-04-23T09:57:56.749Z,39.60
2019-04-23T10:00:32.983Z,39.39
2019-04-23T10:02:41.639Z,39.35
2019-04-23T10:05:11.916Z,39.22
2019-04-23T10:07:41.897Z,39.31
2019-04-23T10:09:59.425Z,39.08
2019-04-23T10:12:28.241Z,38.95
2019-04-23T10:15:05.449Z,38.95
2019-04-23T10:17:28.386Z,38.83
2019-04-23T10:19:58.327Z,38.86
2019-04-23T10:22:27.261Z,38.96
2019-04-23T10:24:57.172Z,38.75
2019-04-23T10:27:27.229Z,38.81
2019-04-23T10:29:56.147Z,38.66
2019-04-23T10:32:25.460Z,38.59
2019-04-23T10:35:06.845Z,38.69
2019-04-23T10:37:34.576Z,38.51
2019-04-23T10:39:59.226Z,38.56
2019-04-23T10:42:26.502Z,38.45
2019-04-23T10:45:27.291Z,38.46
2019-04-23T10:48:32.613Z,38.34
2019-04-23T10:53:29.667Z,37.95
2019-04-23T10:58:31.520Z,37.64
2019-04-23T11:06:06.736Z,37.47
2019-04-23T11:08:30.968Z,37.55
2019-04-23T11:11:10.955Z,37.31
2019-04-23T11:13:56.640Z,37.25
2019-04-23T11:18:51.940Z,37.02
2019-04-23T11:21:13.710Z,36.87
2019-04-23T11:23:42.914Z,36.76
2019-04-23T11:26:15.175Z,36.67
2019-04-23T11:28:38.467Z,36.46
2019-04-23T11:31:26.027Z,36.22
2019-04-23T11:33:52.384Z,36.29
2019-04-23T11:36:43.604Z,36.17
2019-04-23T11:41:27.644Z,35.79
2019-04-23T11:43:48.589Z,35.62
2019-04-23T11:46:34.025Z,35.55
2019-04-23T11:48:59.632Z,35.75
2019-04-23T11:53:52.472Z,35.56
2019-04-23T11:56:49.201Z,35.40
2019-04-23T11:58:45.841Z,35.45
2019-04-23T12:01:41.959Z,35.20
2019-04-23T12:06:55.918Z,34.94
2019-04-23T12:09:40.096Z,34.88
2019-04-23T12:22:21.889Z,34.26
2019-04-23T12:25:06.391Z,34.23
2019-04-23T12:27:23.258Z,34.08
2019-04-23T12:29:54.558Z,33.92
2019-04-23T12:35:01.478Z,33.99
2019-04-23T12:37:42.817Z,33.76
2019-04-23T12:40:13.029Z,33.74
2019-04-23T12:42:48.889Z,33.38
2019-04-23T12:45:03.517Z,33.32
2019-04-23T12:47:43.850Z,33.28
2019-04-23T12:52:34.151Z,33.07
2019-04-23T12:55:06.759Z,32.93
2019-04-23T12:57:34.417Z,32.80
2019-04-23T13:02:39.869Z,32.44
2019-04-23T13:05:00.307Z,32.34
2019-04-23T13:10:11.918Z,31.97
2019-04-23T13:12:52.972Z,31.82
2019-04-23T13:15:05.303Z,31.76
2019-04-23T13:22:39.784Z,31.33
2019-04-23T13:25:18.196Z,31.41
2019-04-23T13:27:54.357Z,31.22
2019-04-23T13:30:23.229Z,31.15
2019-04-23T13:33:13.198Z,30.99
2019-04-23T13:35:42.020Z,30.80
2019-04-23T13:40:24.199Z,30.67
2019-04-23T13:45:51.204Z,30.39
2019-04-23T13:50:37.469Z,30.27
2019-04-23T13:53:08.147Z,30.21
2019-04-23T13:55:14.704Z,30.02
2019-04-23T13:58:07.483Z,29.77
2019-04-23T14:00:36.917Z,29.70
2019-04-23T14:05:26.866Z,29.34
2019-04-23T14:08:05.706Z,29.36
2019-04-23T14:13:15.046Z,28.93
2019-04-23T14:15:41.311Z,28.81
2019-04-23T14:20:33.434Z,28.55
2019-04-23T14:23:17.873Z,28.38
2019-04-23T14:25:47.940Z,28.22
2019-04-23T14:33:15.312Z,27.84
2019-04-23T14:35:40.308Z,27.89
2019-04-23T14:46:23.054Z,27.58
2019-04-23T14:48:23.412Z,27.35
2019-04-23T14:51:02.492Z,27.31
2019-04-23T14:53:33.837Z,27.28
2019-04-23T14:56:00.486Z,27.14
2019-04-23T15:01:16.012Z,26.96
2019-04-23T15:03:40.346Z,27.08
2019-04-23T15:06:15.501Z,27.15
2019-04-23T15:08:44.597Z,27.14
2019-04-23T15:13:36.855Z,27.31
2019-04-23T15:24:04.138Z,27.44
2019-04-23T15:27:29.569Z,27.37
2019-04-23T15:28:35.738Z,27.33
2019-04-23T15:31:28.319Z,27.37
2019-04-23T15:34:03.751Z,27.33
2019-04-23T15:36:52.399Z,27.37
2019-04-23T15:39:15.423Z,27.33
2019-04-23T15:41:32.224Z,27.29
2019-04-23T15:44:06.083Z,27.30
2019-04-23T15:49:07.105Z,27.34
2019-04-23T15:54:06.719Z,27.45
2019-04-23T15:56:35.916Z,27.38
2019-04-23T15:59:13.248Z,27.37
2019-04-23T16:01:34.693Z,27.51
2019-04-23T16:03:31.970Z,27.79
2019-04-23T16:06:02.594Z,27.99
2019-04-23T16:09:05.169Z,28.91
2019-04-23T16:16:43.224Z,28.80
2019-04-23T16:19:16.713Z,28.87
2019-04-23T16:24:12.903Z,29.14
2019-04-23T16:26:52.453Z,29.23
2019-04-23T16:29:25.493Z,29.29
2019-04-23T16:31:39.942Z,29.29
2019-04-23T16:34:28.677Z,29.34
2019-04-23T16:36:56.425Z,29.47
2019-04-23T16:39:21.442Z,29.54
2019-04-23T16:42:02.194Z,29.60
2019-04-23T16:44:36.709Z,29.67
2019-04-23T16:47:04.497Z,29.71
2019-04-23T16:49:42.341Z,29.80
2019-04-23T16:51:55.420Z,29.90
2019-04-23T16:54:31.431Z,29.99
2019-04-23T16:59:37.013Z,30.17
2019-04-23T17:06:57.863Z,30.38
2019-04-23T17:09:38.611Z,30.47
2019-04-23T17:12:06.028Z,30.56
2019-04-23T17:14:23.393Z,30.61
2019-04-23T17:16:53.677Z,30.65
2019-04-23T17:19:29.485Z,30.75
2019-04-23T17:27:08.521Z,31.03
2019-04-23T17:29:35.163Z,31.09
2019-04-23T17:32:07.121Z,31.24
2019-04-23T17:37:19.915Z,31.39
2019-04-23T17:40:03.578Z,31.46
2019-04-23T17:42:28.998Z,31.56
2019-04-23T17:45:28.452Z,31.59
2019-04-23T17:47:43.756Z,31.79
2019-04-23T17:50:14.046Z,31.80
2019-04-23T17:52:47.472Z,31.97
2019-04-23T17:57:45.960Z,32.15
2019-04-23T18:10:25.259Z,32.69
2019-04-23T18:12:53.701Z,32.86
2019-04-23T18:15:15.782Z,32.90
2019-04-23T18:17:54.776Z,32.96
2019-04-23T18:20:58.054Z,33.05
2019-04-23T18:23:08.483Z,33.12
2019-04-23T18:25:45.708Z,33.24
2019-04-23T18:28:08.892Z,33.36
2019-04-23T18:36:08.338Z,33.86
2019-04-23T18:38:45.921Z,33.97
2019-04-23T18:43:51.117Z,34.21
2019-04-23T18:46:27.998Z,34.31
2019-04-23T18:48:50.084Z,34.47
2019-04-23T18:51:33.654Z,34.70
2019-04-23T18:58:54.610Z,34.98
2019-04-23T19:06:37.792Z,35.32
2019-04-23T19:09:32.513Z,35.51
2019-04-23T19:12:28.257Z,35.61
2019-04-23T19:14:47.807Z,35.77
2019-04-23T19:19:48.380Z,35.97
2019-04-23T19:22:27.252Z,36.10
2019-04-23T19:24:46.767Z,36.13
2019-04-23T19:32:24.375Z,36.76
2019-04-23T19:34:53.027Z,36.82
2019-04-23T19:37:35.245Z,37.00
2019-04-23T19:39:53.229Z,37.33
2019-04-23T19:42:26.642Z,37.31
2019-04-23T19:44:54.452Z,37.62
2019-04-23T19:47:38.548Z,37.75
2019-04-23T19:49:55.147Z,37.76
2019-04-23T19:52:52.001Z,37.94
2019-04-23T19:59:58.005Z,38.21
2019-04-23T20:02:45.345Z,38.19
2019-04-23T20:05:00.810Z,38.35
2019-04-23T20:07:44.672Z,38.54
2019-04-23T20:14:56.434Z,39.13
2019-04-23T20:17:40.979Z,39.16
2019-04-23T20:20:06.206Z,39.18
2019-04-23T20:22:42.205Z,39.35
2019-04-23T20:27:33.689Z,39.61
2019-04-23T20:35:31.994Z,39.97
2019-04-23T20:45:39.592Z,40.54
2019-04-23T20:48:02.239Z,40.69
2019-04-23T20:50:34.741Z,40.88
2019-04-23T20:53:00.038Z,40.90
2019-04-23T20:55:51.124Z,41.04
2019-04-23T20:58:11.116Z,41.26
2019-04-23T21:01:00.311Z,41.42
2019-04-23T21:05:59.970Z,41.87
2019-04-23T21:08:41.057Z,42.12
2019-04-23T21:10:53.700Z,42.15
2019-04-23T21:13:43.347Z,42.41
2019-04-23T21:15:54.594Z,42.46
2019-04-23T21:18:34.539Z,42.38
2019-04-23T21:23:32.198Z,42.87
2019-04-23T21:25:52.515Z,43.10
2019-04-23T21:28:35.910Z,43.08
2019-04-23T21:33:35.401Z,43.37
2019-04-23T21:36:43.030Z,43.57
2019-04-23T21:39:40.736Z,43.52
2019-04-23T21:44:28.891Z,43.92
2019-04-23T21:47:04.612Z,43.99
2019-04-23T21:52:04.967Z,44.31
2019-04-23T21:54:36.554Z,44.49
2019-04-23T21:57:01.785Z,44.59
2019-04-23T21:59:34.437Z,44.63
2019-04-23T22:02:03.498Z,44.77
2019-04-23T22:07:11.553Z,45.18
2019-04-23T22:14:40.138Z,45.43
2019-04-23T22:19:37.773Z,45.90
2019-04-23T22:22:00.931Z,45.78
2019-04-23T22:24:46.492Z,45.82
2019-04-23T22:27:02.844Z,46.14
2019-04-23T22:29:41.890Z,46.09
2019-04-23T22:32:04.399Z,46.31
2019-04-23T22:37:17.115Z,46.54
2019-04-23T22:39:45.686Z,46.54
2019-04-23T22:42:35.000Z,46.53
2019-04-23T22:44:57.661Z,46.91
2019-04-23T22:49:53.096Z,46.89
2019-04-23T22:54:57.352Z,47.17
2019-04-23T22:57:11.638Z,47.25
2019-04-23T23:00:04.479Z,47.43
2019-04-23T23:07:57.738Z,47.64
2019-04-23T23:10:24.586Z,47.73
2019-04-23T23:12:58.596Z,47.84
2019-04-23T23:15:22.706Z,47.96
2019-04-23T23:18:02.388Z,48.03
2019-04-23T23:20:22.557Z,48.04
2019-04-23T23:22:57.347Z,47.98
2019-04-23T23:25:25.627Z,48.15
2019-04-23T23:27:58.955Z,48.29
2019-04-23T23:30:23.245Z,48.28
2019-04-23T23:32:55.670Z,48.24
2019-04-23T23:37:50.496Z,48.41
2019-04-23T23:40:26.547Z,48.43
2019-04-23T23:43:07.161Z,48.42
2019-04-23T23:47:59.279Z,48.61
2019-04-23T23:50:25.158Z,48.43
2019-04-23T23:53:02.705Z,48.44
2019-04-23T23:55:25.157Z,48.28
2019-04-23T23:58:01.846Z,48.31
